createdAt,value
2019-02-06T00:02:10.176Z,-1.55
2019-02-06T00:04:42.184Z,-1.62
2019-02-06T00:07:14.193Z,-1.51
2019-02-06T00:09:46.225Z,-1.51
2019-02-06T00:12:18.188Z,-1.57
2019-02-06T00:14:50.180Z,-1.54
2019-02-06T00:17:22.235Z,-1.55
2019-02-06T00:19:54.237Z,-1.44
2019-02-06T00:22:26.209Z,-1.45
2019-02-06T00:24:58.199Z,-1.56
2019-02-06T00:27:30.192Z,-1.59
2019-02-06T00:30:03.181Z,-1.53
2019-02-06T00:32:35.244Z,-1.58
2019-02-06T00:35:07.251Z,-1.57
2019-02-06T00:37:39.257Z,-1.57
2019-02-06T00:40:11.240Z,-1.68
2019-02-06T00:42:43.248Z,-1.76
2019-02-06T00:45:15.364Z,-1.77
2019-02-06T00:47:47.403Z,-1.84
2019-02-06T00:50:19.350Z,-1.88
2019-02-06T00:52:51.357Z,-1.81
2019-02-06T00:55:23.323Z,-1.77
2019-02-06T00:57:55.333Z,-1.78
2019-02-06T01:00:27.411Z,-1.77
2019-02-06T01:02:59.797Z,-1.83
2019-02-06T01:05:38.494Z,-1.84
2019-02-06T01:08:05.768Z,-1.83
2019-02-06T01:10:37.719Z,-1.87
2019-02-06T01:13:10.247Z,-1.75
2019-02-06T01:15:42.716Z,-1.78
2019-02-06T01:18:14.760Z,-1.77
2019-02-06T01:20:46.752Z,-1.80
2019-02-06T01:23:18.727Z,-1.81
2019-02-06T01:25:50.813Z,-1.81
2019-02-06T01:28:23.112Z,-1.83
2019-02-06T01:31:01.801Z,-1.80
2019-02-06T01:33:33.787Z,-1.82
2019-02-06T01:36:05.770Z,-1.90
2019-02-06T01:38:37.759Z,-1.75
2019-02-06T01:41:09.771Z,-1.97
2019-02-06T01:43:41.796Z,-1.94
2019-02-06T01:46:13.782Z,-1.99
2019-02-06T01:48:45.783Z,-2.01
2019-02-06T01:51:17.750Z,-1.99
2019-02-06T01:53:49.718Z,-2.05
2019-02-06T01:56:21.677Z,-2.04
2019-02-06T01:58:53.654Z,-2.01
2019-02-06T02:01:25.654Z,-2.02
2019-02-06T02:03:57.721Z,-2.02
2019-02-06T02:06:29.813Z,-2.08
2019-02-06T02:09:03.899Z,-2.15
2019-02-06T02:11:35.953Z,-2.15
2019-02-06T02:14:07.926Z,-2.18
2019-02-06T02:16:40.015Z,-2.18
2019-02-06T02:19:11.973Z,-2.19
2019-02-06T02:21:43.985Z,-2.17
2019-02-06T02:24:15.966Z,-2.18
2019-02-06T02:26:47.941Z,-2.30
2019-02-06T02:29:19.902Z,-2.30
2019-02-06T02:31:51.891Z,-2.40
2019-02-06T02:34:23.823Z,-2.31
2019-02-06T02:36:55.876Z,-2.39
2019-02-06T02:39:27.864Z,-2.31
2019-02-06T02:41:59.887Z,-2.35
2019-02-06T02:44:31.894Z,-2.34
2019-02-06T02:47:03.878Z,-2.36
2019-02-06T02:49:35.841Z,-2.38
2019-02-06T02:52:07.842Z,-2.36
2019-02-06T02:54:39.787Z,-2.37
2019-02-06T02:57:11.872Z,-2.38
2019-02-06T02:59:43.885Z,-2.27
2019-02-06T03:02:42.130Z,-2.37
2019-02-06T03:05:18.294Z,-2.42
2019-02-06T03:07:50.298Z,-2.55
2019-02-06T03:10:23.398Z,-2.64
2019-02-06T03:12:55.397Z,-2.78
2019-02-06T03:15:27.643Z,-2.76
2019-02-06T03:17:59.645Z,-2.77
2019-02-06T03:20:31.608Z,-2.65
2019-02-06T03:23:03.714Z,-2.74
2019-02-06T03:25:35.680Z,-2.78
2019-02-06T03:28:07.850Z,-2.82
2019-02-06T03:30:39.834Z,-2.69
2019-02-06T03:33:11.832Z,-2.66
2019-02-06T03:35:43.811Z,-2.60
2019-02-06T03:38:15.785Z,-2.58
2019-02-06T03:40:47.794Z,-2.66
2019-02-06T03:43:19.819Z,-2.66
2019-02-06T03:45:51.785Z,-2.86
2019-02-06T03:48:23.799Z,-2.91
2019-02-06T03:50:55.743Z,-2.92
2019-02-06T03:53:29.646Z,-2.87
2019-02-06T03:56:01.608Z,-2.77
2019-02-06T03:58:33.583Z,-2.82
2019-02-06T04:01:05.601Z,-2.78
2019-02-06T04:03:37.582Z,-2.84
2019-02-06T04:06:09.698Z,-2.83
2019-02-06T04:08:41.844Z,-2.84
2019-02-06T04:11:13.879Z,-2.81
2019-02-06T04:13:45.917Z,-2.81
2019-02-06T04:16:17.929Z,-2.82
2019-02-06T04:18:49.931Z,-2.80
2019-02-06T04:21:21.924Z,-2.81
2019-02-06T04:23:53.945Z,-2.76
2019-02-06T04:26:26.061Z,-2.85
2019-02-06T04:28:58.059Z,-2.90
2019-02-06T04:31:30.046Z,-2.97
2019-02-06T04:34:02.037Z,-2.83
2019-02-06T04:36:34.077Z,-2.90
2019-02-06T04:39:07.284Z,-2.82
2019-02-06T04:41:39.304Z,-2.88
2019-02-06T04:44:11.382Z,-2.89
2019-02-06T04:46:43.402Z,-2.96
2019-02-06T04:49:15.383Z,-2.97
2019-02-06T04:51:47.473Z,-3.02
2019-02-06T04:54:19.489Z,-3.03
2019-02-06T04:56:51.421Z,-3.03
2019-02-06T04:59:23.450Z,-3.03
2019-02-06T05:01:55.438Z,-3.02
2019-02-06T05:04:27.386Z,-3.01
2019-02-06T05:06:59.417Z,-3.10
2019-02-06T05:09:31.381Z,-3.09
2019-02-06T05:12:03.381Z,-3.12
2019-02-06T05:14:35.333Z,-3.18
2019-02-06T05:17:07.342Z,-3.05
2019-02-06T05:19:39.297Z,-3.13
2019-02-06T05:22:11.285Z,-3.07
2019-02-06T05:24:43.782Z,-2.99
2019-02-06T05:27:15.797Z,-3.18
2019-02-06T05:29:47.751Z,-3.25
2019-02-06T05:32:20.849Z,-3.29
2019-02-06T05:34:52.803Z,-3.34
2019-02-06T05:37:32.055Z,-3.32
2019-02-06T05:39:58.724Z,-3.30
2019-02-06T05:42:30.752Z,-3.26
2019-02-06T05:45:04.701Z,-3.38
2019-02-06T05:47:36.701Z,-3.25
2019-02-06T05:50:09.979Z,-2.97
2019-02-06T05:52:41.934Z,-2.84
2019-02-06T05:55:14.842Z,-2.95
2019-02-06T05:57:47.489Z,-3.09
2019-02-06T06:00:28.119Z,-3.09
2019-02-06T06:03:00.101Z,-3.18
2019-02-06T06:05:32.091Z,-3.18
2019-02-06T06:08:04.126Z,-3.19
2019-02-06T06:10:36.076Z,-3.17
2019-02-06T06:13:08.112Z,-3.13
2019-02-06T06:15:40.185Z,-3.13
2019-02-06T06:18:12.260Z,-3.20
2019-02-06T06:20:44.214Z,-3.17
2019-02-06T06:23:16.521Z,-3.18
2019-02-06T06:25:48.500Z,-3.21
2019-02-06T06:28:20.505Z,-3.23
2019-02-06T06:30:52.483Z,-3.21
2019-02-06T06:33:24.473Z,-3.22
2019-02-06T06:35:56.747Z,-3.20
2019-02-06T06:38:28.754Z,-3.18
2019-02-06T06:41:00.873Z,-3.21
2019-02-06T06:43:32.881Z,-3.29
2019-02-06T06:46:04.869Z,-3.41
2019-02-06T06:48:37.057Z,-3.47
2019-02-06T06:51:09.023Z,-3.54
2019-02-06T06:53:41.018Z,-3.40
2019-02-06T06:56:13.080Z,-3.39
2019-02-06T06:58:45.061Z,-3.44
2019-02-06T07:01:17.023Z,-3.40
2019-02-06T07:03:49.033Z,-3.38
2019-02-06T07:06:21.077Z,-3.41
2019-02-06T07:08:53.095Z,-3.64
2019-02-06T07:11:25.107Z,-3.41
2019-02-06T07:13:57.133Z,-3.29
2019-02-06T07:16:29.108Z,-3.17
2019-02-06T07:19:02.915Z,-2.99
2019-02-06T07:21:34.888Z,-2.77
2019-02-06T07:24:06.859Z,-2.59
2019-02-06T07:26:39.098Z,-2.33
2019-02-06T07:29:11.069Z,-2.26
2019-02-06T07:31:43.069Z,-2.08
2019-02-06T07:34:15.080Z,-1.81
2019-02-06T07:36:47.134Z,-1.70
2019-02-06T07:39:19.145Z,-1.71
2019-02-06T07:41:51.158Z,-1.77
2019-02-06T07:44:23.129Z,-1.82
2019-02-06T07:46:55.108Z,-1.85
2019-02-06T07:49:27.161Z,-1.73
2019-02-06T07:51:59.200Z,-1.70
2019-02-06T07:54:31.233Z,-1.70
2019-02-06T07:57:03.233Z,-1.45
2019-02-06T07:59:35.203Z,-1.14
2019-02-06T08:02:07.197Z,-1.10
2019-02-06T08:04:41.498Z,-0.86
2019-02-06T08:07:13.133Z,-0.70
2019-02-06T08:09:45.150Z,-0.57
2019-02-06T08:12:17.195Z,-0.47
2019-02-06T08:14:49.999Z,-0.55
2019-02-06T08:17:22.007Z,-0.66
2019-02-06T08:19:54.006Z,-0.59
2019-02-06T08:22:26.008Z,-0.55
2019-02-06T08:24:58.007Z,-0.60
2019-02-06T08:27:30.512Z,-0.64
2019-02-06T08:30:02.854Z,-0.53
2019-02-06T08:32:37.813Z,-0.53
2019-02-06T08:35:09.052Z,-0.42
2019-02-06T08:37:41.072Z,-0.20
2019-02-06T08:40:13.669Z,-0.15
2019-02-06T08:42:45.628Z,-0.01
2019-02-06T08:45:17.893Z,-0.01
2019-02-06T08:47:49.845Z,0.02
2019-02-06T08:50:21.899Z,0.23
2019-02-06T08:52:54.311Z,0.16
2019-02-06T08:55:27.491Z,0.40
2019-02-06T08:57:59.881Z,0.57
2019-02-06T09:00:33.774Z,0.78
2019-02-06T09:03:07.937Z,0.84
2019-02-06T09:05:39.907Z,0.78
2019-02-06T09:08:11.920Z,0.92
2019-02-06T09:10:43.924Z,1.22
2019-02-06T09:13:15.940Z,1.40
2019-02-06T09:15:47.959Z,1.54
2019-02-06T09:18:19.962Z,1.53
2019-02-06T09:20:52.763Z,1.78
2019-02-06T09:23:25.156Z,1.68
2019-02-06T09:25:57.559Z,1.77
2019-02-06T09:28:30.041Z,1.94
2019-02-06T09:31:02.009Z,2.11
2019-02-06T09:33:34.032Z,2.21
2019-02-06T09:36:06.039Z,2.13
2019-02-06T09:38:38.079Z,2.21
2019-02-06T09:41:10.183Z,2.34
2019-02-06T09:43:42.180Z,2.47
2019-02-06T09:46:14.273Z,2.60
2019-02-06T09:48:46.250Z,2.82
2019-02-06T09:51:19.365Z,2.64
2019-02-06T09:53:52.180Z,2.31
2019-02-06T09:56:24.232Z,2.43
2019-02-06T09:58:56.192Z,2.48
2019-02-06T10:01:28.191Z,2.55
2019-02-06T10:04:00.167Z,2.73
2019-02-06T10:06:34.093Z,2.80
2019-02-06T10:09:07.543Z,2.91
2019-02-06T10:11:39.543Z,2.89
2019-02-06T10:14:11.515Z,3.13
2019-02-06T10:16:43.505Z,3.33
2019-02-06T10:19:17.371Z,3.32
2019-02-06T10:21:52.786Z,3.57
2019-02-06T10:24:23.292Z,3.49
2019-02-06T10:26:55.272Z,3.63
2019-02-06T10:29:27.248Z,3.69
2019-02-06T10:31:59.435Z,3.71
2019-02-06T10:34:31.441Z,3.78
2019-02-06T10:37:03.570Z,3.78
2019-02-06T10:39:35.580Z,3.94
2019-02-06T10:42:07.617Z,4.07
2019-02-06T10:44:39.628Z,4.03
2019-02-06T10:47:11.663Z,4.03
2019-02-06T10:49:43.655Z,4.39
2019-02-06T10:52:15.718Z,4.32
2019-02-06T10:54:47.733Z,4.30
2019-02-06T10:57:19.755Z,4.44
2019-02-06T10:59:51.817Z,4.58
2019-02-06T11:02:23.820Z,4.72
2019-02-06T11:04:55.804Z,4.76
2019-02-06T11:07:27.812Z,4.84
2019-02-06T11:09:59.815Z,4.78
2019-02-06T11:12:31.806Z,4.90
2019-02-06T11:15:44.719Z,4.87
2019-02-06T11:18:16.709Z,5.00
2019-02-06T11:20:48.724Z,5.16
2019-02-06T11:23:20.692Z,5.01
2019-02-06T11:25:52.716Z,5.01
2019-02-06T11:28:24.693Z,5.08
2019-02-06T11:30:57.345Z,5.26
2019-02-06T11:33:30.578Z,5.25
2019-02-06T11:36:24.332Z,5.43
2019-02-06T11:38:55.887Z,5.57
2019-02-06T11:41:27.869Z,5.60
2019-02-06T11:43:59.876Z,5.50
2019-02-06T11:46:31.934Z,5.68
2019-02-06T11:51:57.942Z,5.81
2019-02-06T11:54:29.938Z,5.96
2019-02-06T11:57:03.891Z,5.85
2019-02-06T11:59:35.885Z,5.93
2019-02-06T12:02:07.909Z,5.95
2019-02-06T12:04:39.919Z,6.06
2019-02-06T12:07:11.964Z,6.08
2019-02-06T12:09:45.865Z,6.26
2019-02-06T12:12:17.899Z,6.35
2019-02-06T12:14:49.872Z,6.25
2019-02-06T12:17:21.875Z,6.44
2019-02-06T12:19:53.873Z,6.37
2019-02-06T12:22:27.792Z,6.43
2019-02-06T12:24:59.830Z,6.65
2019-02-06T12:27:31.855Z,6.76
2019-02-06T12:30:46.301Z,6.67
2019-02-06T12:35:56.325Z,6.79
2019-02-06T12:38:28.346Z,6.93
2019-02-06T12:41:00.354Z,6.82
2019-02-06T12:43:32.350Z,6.88
2019-02-06T12:46:45.328Z,6.87
2019-02-06T12:49:17.332Z,6.80
2019-02-06T12:51:52.270Z,7.06
2019-02-06T12:54:23.291Z,7.21
2019-02-06T12:56:55.278Z,7.10
2019-02-06T12:59:29.219Z,7.14
2019-02-06T13:02:01.198Z,7.26
2019-02-06T13:04:33.282Z,7.21
2019-02-06T13:07:05.261Z,7.37
2019-02-06T13:09:37.298Z,7.26
2019-02-06T13:12:11.210Z,7.36
2019-02-06T13:14:43.213Z,7.57
2019-02-06T13:17:15.211Z,7.50
2019-02-06T13:19:47.247Z,7.50
2019-02-06T13:22:19.244Z,7.64
2019-02-06T13:24:53.171Z,7.64
2019-02-06T13:27:28.150Z,7.70
2019-02-06T13:30:00.203Z,7.73
2019-02-06T13:32:32.175Z,7.68
2019-02-06T13:35:45.556Z,7.90
2019-02-06T13:38:17.551Z,7.95
2019-02-06T13:40:49.588Z,7.88
2019-02-06T13:43:21.621Z,7.81
2019-02-06T13:45:53.633Z,7.91
2019-02-06T13:48:25.601Z,7.96
2019-02-06T13:50:57.661Z,8.03
2019-02-06T13:53:29.723Z,8.11
2019-02-06T13:56:01.764Z,8.11
2019-02-06T13:58:33.797Z,7.98
2019-02-06T14:01:05.840Z,8.04
2019-02-06T14:03:37.829Z,8.05
2019-02-06T14:06:11.444Z,8.30
2019-02-06T14:08:43.766Z,8.33
2019-02-06T14:11:15.782Z,8.03
2019-02-06T14:13:47.817Z,8.13
2019-02-06T14:16:19.848Z,8.26
2019-02-06T14:18:53.778Z,8.16
2019-02-06T14:21:25.933Z,8.31
2019-02-06T14:24:29.113Z,8.31
2019-02-06T14:27:40.069Z,8.41
2019-02-06T14:30:20.598Z,8.46
2019-02-06T14:33:18.905Z,8.43
2019-02-06T14:36:29.882Z,8.38
2019-02-06T14:39:40.831Z,8.27
2019-02-06T14:42:56.344Z,8.22
2019-02-06T14:46:03.083Z,8.22
2019-02-06T14:49:13.170Z,8.26
2019-02-06T14:52:39.588Z,8.22
2019-02-06T14:55:40.338Z,8.24
2019-02-06T14:58:56.931Z,8.32
2019-02-06T15:02:17.087Z,8.22
2019-02-06T15:05:45.044Z,8.22
2019-02-06T15:08:42.440Z,8.07
2019-02-06T15:11:45.976Z,8.12
2019-02-06T15:14:37.222Z,8.10
2019-02-06T15:17:53.202Z,7.95
2019-02-06T15:20:58.415Z,7.96
2019-02-06T15:24:08.309Z,7.78
2019-02-06T15:27:42.131Z,7.75
2019-02-06T15:30:56.905Z,7.65
2019-02-06T15:34:15.433Z,7.46
2019-02-06T15:37:10.560Z,7.44
2019-02-06T15:40:33.155Z,7.30
2019-02-06T15:43:52.280Z,7.31
2019-02-06T15:47:08.275Z,7.18
2019-02-06T15:50:10.211Z,7.10
2019-02-06T15:53:06.990Z,7.04
2019-02-06T15:56:19.902Z,7.10
2019-02-06T15:59:25.325Z,6.95
2019-02-06T16:02:30.373Z,6.81
2019-02-06T16:05:52.469Z,6.54
2019-02-06T16:09:18.588Z,6.39
2019-02-06T16:12:38.200Z,6.17
2019-02-06T16:15:25.646Z,5.98
2019-02-06T16:18:43.010Z,5.79
2019-02-06T16:21:53.272Z,5.67
2019-02-06T16:24:32.745Z,5.59
2019-02-06T16:28:20.385Z,5.47
2019-02-06T16:31:43.250Z,5.39
2019-02-06T16:34:59.711Z,5.31
2019-02-06T16:38:10.994Z,5.21
2019-02-06T16:41:08.431Z,5.10
2019-02-06T16:44:30.417Z,4.90
2019-02-06T16:47:52.247Z,4.85
2019-02-06T16:51:09.031Z,4.78
2019-02-06T16:54:16.302Z,4.74
2019-02-06T16:57:29.526Z,4.67
2019-02-06T17:00:25.253Z,4.47
2019-02-06T17:03:45.032Z,4.32
2019-02-06T17:06:38.866Z,4.21
2019-02-06T17:09:43.397Z,4.14
2019-02-06T17:12:44.473Z,4.03
2019-02-06T17:15:50.584Z,3.90
2019-02-06T17:18:55.255Z,3.78
2019-02-06T17:22:24.293Z,3.63
2019-02-06T17:25:47.060Z,3.66
2019-02-06T17:28:45.274Z,3.42
2019-02-06T17:32:11.116Z,3.29
2019-02-06T17:35:11.707Z,3.12
2019-02-06T17:38:22.713Z,3.15
2019-02-06T17:41:31.537Z,3.27
2019-02-06T17:44:36.483Z,3.18
2019-02-06T17:47:53.088Z,3.14
2019-02-06T17:50:54.429Z,2.96
2019-02-06T17:53:32.585Z,2.64
2019-02-06T17:56:04.636Z,2.53
2019-02-06T17:58:42.067Z,2.33
2019-02-06T18:01:47.839Z,2.25
2019-02-06T18:04:28.808Z,2.30
2019-02-06T18:07:02.014Z,2.18
2019-02-06T18:09:34.075Z,2.10
2019-02-06T18:12:06.597Z,2.36
2019-02-06T18:14:38.637Z,2.35
2019-02-06T18:17:10.746Z,2.23
2019-02-06T18:19:42.808Z,2.16
2019-02-06T18:22:14.871Z,2.17
2019-02-06T18:24:47.142Z,2.37
2019-02-06T18:27:19.376Z,2.16
2019-02-06T18:29:53.293Z,1.99
2019-02-06T18:32:26.035Z,1.96
2019-02-06T18:34:58.081Z,1.93
2019-02-06T18:37:30.578Z,1.81
2019-02-06T18:40:03.883Z,1.74
2019-02-06T18:42:36.998Z,1.65
2019-02-06T18:45:12.642Z,1.68
2019-02-06T18:47:45.318Z,1.64
2019-02-06T18:50:19.623Z,1.69
2019-02-06T18:52:51.878Z,1.60
2019-02-06T18:55:23.946Z,1.33
2019-02-06T18:57:56.346Z,1.31
2019-02-06T19:00:32.272Z,1.22
2019-02-06T19:03:08.460Z,1.21
2019-02-06T19:05:40.558Z,1.21
2019-02-06T19:08:12.740Z,1.23
2019-02-06T19:10:45.066Z,1.19
2019-02-06T19:13:17.068Z,1.05
2019-02-06T19:15:56.623Z,1.06
2019-02-06T19:18:24.163Z,1.00
2019-02-06T19:20:58.272Z,1.05
2019-02-06T19:23:32.541Z,1.14
2019-02-06T19:26:04.775Z,0.88
2019-02-06T19:28:38.612Z,0.93
2019-02-06T19:31:10.993Z,0.80
2019-02-06T19:33:43.132Z,0.71
2019-02-06T19:36:15.524Z,0.64
2019-02-06T19:38:47.883Z,0.58
2019-02-06T19:41:19.997Z,0.54
2019-02-06T19:43:52.039Z,0.71
2019-02-06T19:46:24.775Z,0.73
2019-02-06T19:48:56.817Z,0.77
2019-02-06T19:51:29.442Z,0.81
2019-02-06T19:54:01.480Z,0.79
2019-02-06T19:56:33.610Z,0.75
2019-02-06T19:59:05.818Z,0.76
2019-02-06T20:01:37.991Z,0.74
2019-02-06T20:04:10.280Z,0.73
2019-02-06T20:06:42.607Z,0.70
2019-02-06T20:09:14.967Z,0.75
2019-02-06T20:11:47.375Z,0.88
2019-02-06T20:14:19.425Z,0.78
2019-02-06T20:16:51.603Z,0.80
2019-02-06T20:19:24.269Z,0.81
2019-02-06T20:21:56.438Z,0.69
2019-02-06T20:24:28.475Z,0.83
2019-02-06T20:27:00.865Z,0.71
2019-02-06T20:29:32.963Z,0.49
2019-02-06T20:32:05.027Z,0.29
2019-02-06T20:34:37.130Z,0.23
2019-02-06T20:37:09.201Z,0.20
2019-02-06T20:39:41.283Z,0.07
2019-02-06T20:42:13.402Z,0.07
2019-02-06T20:44:45.546Z,0.04
2019-02-06T20:47:17.752Z,-0.01
2019-02-06T20:49:49.850Z,0.05
2019-02-06T20:52:23.663Z,0.04
2019-02-06T20:54:55.890Z,-0.06
2019-02-06T20:57:28.013Z,-0.12
2019-02-06T21:00:00.549Z,-0.11
2019-02-06T21:02:32.587Z,-0.10
2019-02-06T21:05:05.654Z,-0.05
2019-02-06T21:07:37.786Z,-0.04
2019-02-06T21:10:14.071Z,0.00
2019-02-06T21:12:46.075Z,0.04
2019-02-06T21:15:18.145Z,0.05
2019-02-06T21:17:50.280Z,-0.14
2019-02-06T21:20:22.376Z,-0.16
2019-02-06T21:22:54.565Z,-0.11
2019-02-06T21:25:26.641Z,-0.19
2019-02-06T21:27:58.656Z,0.07
2019-02-06T21:30:32.454Z,-0.08
2019-02-06T21:33:04.503Z,-0.07
2019-02-06T21:35:36.582Z,-0.18
2019-02-06T21:38:08.594Z,-0.21
2019-02-06T21:40:40.852Z,-0.21
2019-02-06T21:43:12.863Z,-0.20
2019-02-06T21:45:44.928Z,-0.18
2019-02-06T21:48:16.944Z,-0.16
2019-02-06T21:50:48.983Z,-0.12
2019-02-06T21:53:20.980Z,-0.21
2019-02-06T21:55:53.021Z,-0.14
2019-02-06T21:58:25.078Z,-0.19
2019-02-06T22:00:57.115Z,-0.19
2019-02-06T22:03:29.138Z,-0.28
2019-02-06T22:06:01.185Z,-0.42
2019-02-06T22:08:33.159Z,-0.37
2019-02-06T22:11:05.273Z,-0.34
2019-02-06T22:13:37.822Z,-0.32
2019-02-06T22:16:09.868Z,-0.41
2019-02-06T22:18:42.075Z,-0.40
2019-02-06T22:21:14.134Z,-0.49
2019-02-06T22:23:46.108Z,-0.50
2019-02-06T22:26:18.775Z,-0.48
2019-02-06T22:28:50.795Z,-0.60
2019-02-06T22:31:22.829Z,-0.64
2019-02-06T22:33:56.249Z,-0.63
2019-02-06T22:36:28.237Z,-0.69
2019-02-06T22:39:00.254Z,-0.65
2019-02-06T22:41:32.254Z,-0.67
2019-02-06T22:44:06.593Z,-0.69
2019-02-06T22:46:38.225Z,-0.69
2019-02-06T22:49:10.253Z,-0.61
2019-02-06T22:51:42.252Z,-0.61
2019-02-06T22:54:14.247Z,-0.72
2019-02-06T22:56:46.352Z,-0.74
2019-02-06T23:01:57.586Z,-0.86
2019-02-06T23:04:29.626Z,-0.76
2019-02-06T23:07:01.583Z,-0.76
2019-02-06T23:09:53.162Z,-0.68
2019-02-06T23:12:27.334Z,-0.72
2019-02-06T23:14:59.097Z,-0.74
2019-02-06T23:17:31.094Z,-0.72
2019-02-06T23:20:43.989Z,-0.74
2019-02-06T23:23:16.023Z,-0.76
2019-02-06T23:25:48.033Z,-0.73
2019-02-06T23:28:20.035Z,-0.74
2019-02-06T23:30:52.061Z,-0.79
2019-02-06T23:33:24.092Z,-0.83
2019-02-06T23:35:56.122Z,-0.82
2019-02-06T23:38:28.130Z,-0.77
2019-02-06T23:41:00.145Z,-0.84
2019-02-06T23:43:32.142Z,-0.95
2019-02-06T23:46:04.323Z,-0.96
2019-02-06T23:48:36.351Z,-0.96
2019-02-06T23:51:10.285Z,-0.95
2019-02-06T23:53:42.300Z,-1.00
2019-02-06T23:56:14.312Z,-0.98
2019-02-06T23:58:46.275Z,-1.02
